sensor_id;sensor_type;location;lat;lon;timestamp;pressure;altitude;pressure_sealevel;temperature
41940;BMP180;23057;48.554;14.454;2023-08-21T00:01:30;94480.00;;;27.00
41940;BMP180;23057;48.554;14.454;2023-08-21T00:04:01;94475.00;;;27.00
41940;BMP180;23057;48.554;14.454;2023-08-21T00:06:32;94461.00;;;26.90
41940;BMP180;23057;48.554;14.454;2023-08-21T00:09:03;94470.00;;;26.90
41940;BMP180;23057;48.554;14.454;2023-08-21T00:11:35;94469.00;;;26.80
41940;BMP180;23057;48.554;14.454;2023-08-21T00:14:05;94472.00;;;26.80
41940;BMP180;23057;48.554;14.454;2023-08-21T00:16:37;94477.00;;;26.70
41940;BMP180;23057;48.554;14.454;2023-08-21T00:19:07;94473.00;;;26.60
41940;BMP180;23057;48.554;14.454;2023-08-21T00:21:38;94472.00;;;26.50
41940;BMP180;23057;48.554;14.454;2023-08-21T00:24:09;94466.00;;;26.40
41940;BMP180;23057;48.554;14.454;2023-08-21T00:26:40;94472.00;;;26.30
41940;BMP180;23057;48.554;14.454;2023-08-21T00:29:11;94467.00;;;26.30
41940;BMP180;23057;48.554;14.454;2023-08-21T00:31:41;94459.00;;;26.20
41940;BMP180;23057;48.554;14.454;2023-08-21T00:34:12;94456.00;;;26.20
41940;BMP180;23057;48.554;14.454;2023-08-21T00:36:43;94463.00;;;26.20
41940;BMP180;23057;48.554;14.454;2023-08-21T00:39:14;94457.00;;;26.20
41940;BMP180;23057;48.554;14.454;2023-08-21T00:41:45;94460.00;;;26.20
41940;BMP180;23057;48.554;14.454;2023-08-21T00:44:16;94459.00;;;26.20
41940;BMP180;23057;48.554;14.454;2023-08-21T00:46:47;94457.00;;;26.20
41940;BMP180;23057;48.554;14.454;2023-08-21T00:49:18;94456.00;;;26.20
41940;BMP180;23057;48.554;14.454;2023-08-21T00:51:51;94460.00;;;26.20
41940;BMP180;23057;48.554;14.454;2023-08-21T00:54:22;94464.00;;;26.20
41940;BMP180;23057;48.554;14.454;2023-08-21T00:56:53;94471.00;;;26.20
41940;BMP180;23057;48.554;14.454;2023-08-21T00:59:24;94467.00;;;26.30
41940;BMP180;23057;48.554;14.454;2023-08-21T01:01:55;94462.00;;;26.20
41940;BMP180;23057;48.554;14.454;2023-08-21T01:04:26;94469.00;;;26.20
41940;BMP180;23057;48.554;14.454;2023-08-21T01:06:58;94467.00;;;26.20
41940;BMP180;23057;48.554;14.454;2023-08-21T01:10:03;94469.00;;;26.20
41940;BMP180;23057;48.554;14.454;2023-08-21T01:12:56;94463.00;;;26.20
41940;BMP180;23057;48.554;14.454;2023-08-21T01:15:38;94457.00;;;26.20
41940;BMP180;23057;48.554;14.454;2023-08-21T01:18:10;94466.00;;;26.20
41940;BMP180;23057;48.554;14.454;2023-08-21T01:20:41;94455.00;;;26.20
41940;BMP180;23057;48.554;14.454;2023-08-21T01:23:29;94467.00;;;26.20
41940;BMP180;23057;48.554;14.454;2023-08-21T01:26:04;94462.00;;;26.20
41940;BMP180;23057;48.554;14.454;2023-08-21T01:28:35;94458.00;;;26.20
41940;BMP180;23057;48.554;14.454;2023-08-21T01:31:33;94466.00;;;26.10
41940;BMP180;23057;48.554;14.454;2023-08-21T01:34:13;94465.00;;;26.10
41940;BMP180;23057;48.554;14.454;2023-08-21T01:36:46;94464.00;;;26.00
41940;BMP180;23057;48.554;14.454;2023-08-21T01:39:18;94461.00;;;26.00
41940;BMP180;23057;48.554;14.454;2023-08-21T01:41:49;94466.00;;;26.00
41940;BMP180;23057;48.554;14.454;2023-08-21T01:44:20;94463.00;;;26.00
41940;BMP180;23057;48.554;14.454;2023-08-21T01:46:51;94466.00;;;25.90
41940;BMP180;23057;48.554;14.454;2023-08-21T01:49:21;94461.00;;;25.90
41940;BMP180;23057;48.554;14.454;2023-08-21T01:51:52;94459.00;;;25.80
41940;BMP180;23057;48.554;14.454;2023-08-21T01:54:23;94462.00;;;25.80
41940;BMP180;23057;48.554;14.454;2023-08-21T01:56:54;94456.00;;;25.80
41940;BMP180;23057;48.554;14.454;2023-08-21T01:59:25;94470.00;;;25.80
41940;BMP180;23057;48.554;14.454;2023-08-21T02:01:55;94470.00;;;25.80
41940;BMP180;23057;48.554;14.454;2023-08-21T02:04:26;94463.00;;;25.70
41940;BMP180;23057;48.554;14.454;2023-08-21T02:06:57;94462.00;;;25.70
41940;BMP180;23057;48.554;14.454;2023-08-21T02:09:28;94464.00;;;25.70
41940;BMP180;23057;48.554;14.454;2023-08-21T02:11:59;94454.00;;;25.60
41940;BMP180;23057;48.554;14.454;2023-08-21T02:14:30;94456.00;;;25.60
41940;BMP180;23057;48.554;14.454;2023-08-21T02:17:00;94450.00;;;25.60
41940;BMP180;23057;48.554;14.454;2023-08-21T02:19:32;94452.00;;;25.60
41940;BMP180;23057;48.554;14.454;2023-08-21T02:22:03;94452.00;;;25.60
41940;BMP180;23057;48.554;14.454;2023-08-21T02:24:34;94454.00;;;25.50
41940;BMP180;23057;48.554;14.454;2023-08-21T02:27:05;94453.00;;;25.50
41940;BMP180;23057;48.554;14.454;2023-08-21T02:29:36;94455.00;;;25.50
41940;BMP180;23057;48.554;14.454;2023-08-21T02:32:06;94453.00;;;25.40
41940;BMP180;23057;48.554;14.454;2023-08-21T02:34:37;94451.00;;;25.30
41940;BMP180;23057;48.554;14.454;2023-08-21T02:37:10;94458.00;;;25.20
41940;BMP180;23057;48.554;14.454;2023-08-21T02:39:40;94450.00;;;25.20
41940;BMP180;23057;48.554;14.454;2023-08-21T02:42:11;94456.00;;;25.10
41940;BMP180;23057;48.554;14.454;2023-08-21T02:44:42;94454.00;;;25.20
41940;BMP180;23057;48.554;14.454;2023-08-21T02:47:13;94454.00;;;25.20
41940;BMP180;23057;48.554;14.454;2023-08-21T02:49:43;94454.00;;;25.20
41940;BMP180;23057;48.554;14.454;2023-08-21T02:52:14;94445.00;;;25.20
41940;BMP180;23057;48.554;14.454;2023-08-21T02:54:45;94451.00;;;25.20
41940;BMP180;23057;48.554;14.454;2023-08-21T02:57:16;94445.00;;;25.10
41940;BMP180;23057;48.554;14.454;2023-08-21T02:59:46;94443.00;;;25.10
41940;BMP180;23057;48.554;14.454;2023-08-21T03:02:18;94443.00;;;25.20
41940;BMP180;23057;48.554;14.454;2023-08-21T03:04:49;94438.00;;;25.20
41940;BMP180;23057;48.554;14.454;2023-08-21T03:07:21;94443.00;;;25.20
41940;BMP180;23057;48.554;14.454;2023-08-21T03:09:51;94443.00;;;25.20
41940;BMP180;23057;48.554;14.454;2023-08-21T03:12:22;94425.00;;;25.30
41940;BMP180;23057;48.554;14.454;2023-08-21T03:14:53;94423.00;;;25.30
41940;BMP180;23057;48.554;14.454;2023-08-21T03:17:24;94428.00;;;25.30
41940;BMP180;23057;48.554;14.454;2023-08-21T03:19:55;94424.00;;;25.30
41940;BMP180;23057;48.554;14.454;2023-08-21T03:22:26;94426.00;;;25.30
41940;BMP180;23057;48.554;14.454;2023-08-21T03:24:57;94433.00;;;25.30
41940;BMP180;23057;48.554;14.454;2023-08-21T03:27:28;94423.00;;;25.30
41940;BMP180;23057;48.554;14.454;2023-08-21T03:29:59;94433.00;;;25.30
41940;BMP180;23057;48.554;14.454;2023-08-21T03:32:32;94426.00;;;25.30
41940;BMP180;23057;48.554;14.454;2023-08-21T03:35:04;94423.00;;;25.30
41940;BMP180;23057;48.554;14.454;2023-08-21T03:37:35;94429.00;;;25.30
41940;BMP180;23057;48.554;14.454;2023-08-21T03:40:07;94424.00;;;25.30
41940;BMP180;23057;48.554;14.454;2023-08-21T03:42:38;94435.00;;;25.30
41940;BMP180;23057;48.554;14.454;2023-08-21T03:45:09;94439.00;;;25.30
41940;BMP180;23057;48.554;14.454;2023-08-21T03:47:41;94436.00;;;25.30
41940;BMP180;23057;48.554;14.454;2023-08-21T03:50:12;94438.00;;;25.30
41940;BMP180;23057;48.554;14.454;2023-08-21T03:52:43;94438.00;;;25.20
41940;BMP180;23057;48.554;14.454;2023-08-21T03:55:14;94434.00;;;25.10
41940;BMP180;23057;48.554;14.454;2023-08-21T03:57:45;94443.00;;;25.10
41940;BMP180;23057;48.554;14.454;2023-08-21T04:00:16;94432.00;;;25.10
41940;BMP180;23057;48.554;14.454;2023-08-21T04:02:46;94428.00;;;25.10
41940;BMP180;23057;48.554;14.454;2023-08-21T04:05:17;94436.00;;;25.10
41940;BMP180;23057;48.554;14.454;2023-08-21T04:07:48;94442.00;;;25.10
41940;BMP180;23057;48.554;14.454;2023-08-21T04:10:19;94433.00;;;25.10
41940;BMP180;23057;48.554;14.454;2023-08-21T04:12:50;94443.00;;;25.10
41940;BMP180;23057;48.554;14.454;2023-08-21T04:15:20;94446.00;;;25.10
41940;BMP180;23057;48.554;14.454;2023-08-21T04:17:51;94436.00;;;25.10
41940;BMP180;23057;48.554;14.454;2023-08-21T04:20:23;94445.00;;;25.20
41940;BMP180;23057;48.554;14.454;2023-08-21T04:22:54;94441.00;;;25.20
41940;BMP180;23057;48.554;14.454;2023-08-21T04:25:24;94434.00;;;25.30
41940;BMP180;23057;48.554;14.454;2023-08-21T04:27:55;94437.00;;;25.40
41940;BMP180;23057;48.554;14.454;2023-08-21T04:30:26;94440.00;;;25.50
41940;BMP180;23057;48.554;14.454;2023-08-21T04:32:57;94444.00;;;25.70
41940;BMP180;23057;48.554;14.454;2023-08-21T04:35:27;94439.00;;;25.90
41940;BMP180;23057;48.554;14.454;2023-08-21T04:37:58;94441.00;;;26.10
41940;BMP180;23057;48.554;14.454;2023-08-21T04:40:29;94442.00;;;26.20
41940;BMP180;23057;48.554;14.454;2023-08-21T04:43:00;94438.00;;;26.40
41940;BMP180;23057;48.554;14.454;2023-08-21T04:45:31;94440.00;;;26.60
41940;BMP180;23057;48.554;14.454;2023-08-21T04:48:02;94442.00;;;26.80
41940;BMP180;23057;48.554;14.454;2023-08-21T04:50:34;94448.00;;;27.00
41940;BMP180;23057;48.554;14.454;2023-08-21T04:53:05;94441.00;;;27.30
41940;BMP180;23057;48.554;14.454;2023-08-21T04:55:36;94447.00;;;27.50
41940;BMP180;23057;48.554;14.454;2023-08-21T04:58:08;94443.00;;;27.70
41940;BMP180;23057;48.554;14.454;2023-08-21T05:00:39;94451.00;;;27.90
41940;BMP180;23057;48.554;14.454;2023-08-21T05:03:10;94439.00;;;28.20
41940;BMP180;23057;48.554;14.454;2023-08-21T05:05:41;94449.00;;;28.40
41940;BMP180;23057;48.554;14.454;2023-08-21T05:08:11;94453.00;;;28.60
41940;BMP180;23057;48.554;14.454;2023-08-21T05:10:42;94449.00;;;28.80
41940;BMP180;23057;48.554;14.454;2023-08-21T05:13:13;94450.00;;;29.00
41940;BMP180;23057;48.554;14.454;2023-08-21T05:15:56;94452.00;;;29.20
41940;BMP180;23057;48.554;14.454;2023-08-21T05:18:28;94456.00;;;29.40
41940;BMP180;23057;48.554;14.454;2023-08-21T05:20:59;94448.00;;;29.60
41940;BMP180;23057;48.554;14.454;2023-08-21T05:23:29;94451.00;;;29.80
41940;BMP180;23057;48.554;14.454;2023-08-21T05:26:00;94460.00;;;30.00
41940;BMP180;23057;48.554;14.454;2023-08-21T05:28:31;94459.00;;;30.20
41940;BMP180;23057;48.554;14.454;2023-08-21T05:31:03;94460.00;;;30.30
41940;BMP180;23057;48.554;14.454;2023-08-21T05:33:34;94446.00;;;30.40
41940;BMP180;23057;48.554;14.454;2023-08-21T05:36:05;94453.00;;;30.60
41940;BMP180;23057;48.554;14.454;2023-08-21T05:38:36;94446.00;;;30.80
41940;BMP180;23057;48.554;14.454;2023-08-21T05:41:07;94450.00;;;31.10
41940;BMP180;23057;48.554;14.454;2023-08-21T05:43:38;94450.00;;;31.20
41940;BMP180;23057;48.554;14.454;2023-08-21T05:46:10;94451.00;;;31.40
41940;BMP180;23057;48.554;14.454;2023-08-21T05:48:40;94455.00;;;31.60
41940;BMP180;23057;48.554;14.454;2023-08-21T05:51:12;94466.00;;;31.70
41940;BMP180;23057;48.554;14.454;2023-08-21T05:53:43;94459.00;;;31.90
41940;BMP180;23057;48.554;14.454;2023-08-21T05:56:13;94471.00;;;32.00
41940;BMP180;23057;48.554;14.454;2023-08-21T05:58:44;94473.00;;;32.20
41940;BMP180;23057;48.554;14.454;2023-08-21T06:01:15;94475.00;;;32.20
41940;BMP180;23057;48.554;14.454;2023-08-21T06:03:46;94481.00;;;32.10
41940;BMP180;23057;48.554;14.454;2023-08-21T06:06:17;94482.00;;;32.00
41940;BMP180;23057;48.554;14.454;2023-08-21T06:08:47;94479.00;;;31.90
41940;BMP180;23057;48.554;14.454;2023-08-21T06:11:18;94473.00;;;31.90
41940;BMP180;23057;48.554;14.454;2023-08-21T06:13:49;94476.00;;;32.00
41940;BMP180;23057;48.554;14.454;2023-08-21T06:16:20;94476.00;;;32.10
41940;BMP180;23057;48.554;14.454;2023-08-21T06:18:51;94470.00;;;32.30
41940;BMP180;23057;48.554;14.454;2023-08-21T06:21:21;94474.00;;;32.50
41940;BMP180;23057;48.554;14.454;2023-08-21T06:23:52;94471.00;;;32.80
41940;BMP180;23057;48.554;14.454;2023-08-21T06:26:23;94474.00;;;33.00
41940;BMP180;23057;48.554;14.454;2023-08-21T06:28:54;94467.00;;;33.30
41940;BMP180;23057;48.554;14.454;2023-08-21T06:31:24;94474.00;;;33.50
41940;BMP180;23057;48.554;14.454;2023-08-21T06:33:55;94470.00;;;33.70
41940;BMP180;23057;48.554;14.454;2023-08-21T06:36:26;94472.00;;;33.90
41940;BMP180;23057;48.554;14.454;2023-08-21T06:38:57;94475.00;;;34.10
41940;BMP180;23057;48.554;14.454;2023-08-21T06:41:28;94475.00;;;34.20
41940;BMP180;23057;48.554;14.454;2023-08-21T06:43:58;94473.00;;;34.40
41940;BMP180;23057;48.554;14.454;2023-08-21T06:46:29;94471.00;;;34.50
41940;BMP180;23057;48.554;14.454;2023-08-21T06:49:00;94471.00;;;34.70
41940;BMP180;23057;48.554;14.454;2023-08-21T06:51:31;94469.00;;;34.90
41940;BMP180;23057;48.554;14.454;2023-08-21T06:54:02;94465.00;;;35.00
41940;BMP180;23057;48.554;14.454;2023-08-21T06:56:33;94469.00;;;35.20
41940;BMP180;23057;48.554;14.454;2023-08-21T06:59:03;94472.00;;;35.30
41940;BMP180;23057;48.554;14.454;2023-08-21T07:01:35;94469.00;;;35.50
41940;BMP180;23057;48.554;14.454;2023-08-21T07:04:06;94467.00;;;35.70
41940;BMP180;23057;48.554;14.454;2023-08-21T07:06:37;94473.00;;;35.80
41940;BMP180;23057;48.554;14.454;2023-08-21T07:09:08;94473.00;;;35.90
41940;BMP180;23057;48.554;14.454;2023-08-21T07:11:39;94478.00;;;36.00
41940;BMP180;23057;48.554;14.454;2023-08-21T07:14:10;94470.00;;;36.00
41940;BMP180;23057;48.554;14.454;2023-08-21T07:16:43;94475.00;;;36.10
41940;BMP180;23057;48.554;14.454;2023-08-21T07:19:14;94472.00;;;36.20
41940;BMP180;23057;48.554;14.454;2023-08-21T07:21:45;94478.00;;;36.40
41940;BMP180;23057;48.554;14.454;2023-08-21T07:24:15;94478.00;;;36.60
41940;BMP180;23057;48.554;14.454;2023-08-21T07:26:46;94482.00;;;36.70
41940;BMP180;23057;48.554;14.454;2023-08-21T07:29:17;94471.00;;;36.90
41940;BMP180;23057;48.554;14.454;2023-08-21T07:31:48;94482.00;;;37.00
41940;BMP180;23057;48.554;14.454;2023-08-21T07:34:18;94479.00;;;37.20
41940;BMP180;23057;48.554;14.454;2023-08-21T07:36:49;94476.00;;;37.40
41940;BMP180;23057;48.554;14.454;2023-08-21T07:39:20;94481.00;;;37.40
41940;BMP180;23057;48.554;14.454;2023-08-21T07:41:51;94479.00;;;37.50
41940;BMP180;23057;48.554;14.454;2023-08-21T07:44:23;94479.00;;;37.60
41940;BMP180;23057;48.554;14.454;2023-08-21T07:46:54;94479.00;;;37.70
41940;BMP180;23057;48.554;14.454;2023-08-21T07:49:25;94482.00;;;37.70
41940;BMP180;23057;48.554;14.454;2023-08-21T07:51:55;94483.00;;;37.80
41940;BMP180;23057;48.554;14.454;2023-08-21T07:54:26;94489.00;;;37.80
41940;BMP180;23057;48.554;14.454;2023-08-21T07:56:57;94492.00;;;37.90
41940;BMP180;23057;48.554;14.454;2023-08-21T07:59:28;94489.00;;;38.00
41940;BMP180;23057;48.554;14.454;2023-08-21T08:01:58;94490.00;;;38.20
41940;BMP180;23057;48.554;14.454;2023-08-21T08:04:31;94494.00;;;38.20
41940;BMP180;23057;48.554;14.454;2023-08-21T08:07:01;94486.00;;;38.20
41940;BMP180;23057;48.554;14.454;2023-08-21T08:09:32;94494.00;;;38.20
41940;BMP180;23057;48.554;14.454;2023-08-21T08:12:04;94490.00;;;38.20
41940;BMP180;23057;48.554;14.454;2023-08-21T08:14:35;94494.00;;;38.30
41940;BMP180;23057;48.554;14.454;2023-08-21T08:17:06;94487.00;;;38.30
41940;BMP180;23057;48.554;14.454;2023-08-21T08:19:37;94494.00;;;38.40
41940;BMP180;23057;48.554;14.454;2023-08-21T08:22:07;94494.00;;;38.50
41940;BMP180;23057;48.554;14.454;2023-08-21T08:24:38;94496.00;;;38.60
41940;BMP180;23057;48.554;14.454;2023-08-21T08:27:09;94497.00;;;38.60
41940;BMP180;23057;48.554;14.454;2023-08-21T08:29:40;94493.00;;;38.80
41940;BMP180;23057;48.554;14.454;2023-08-21T08:32:11;94494.00;;;38.80
41940;BMP180;23057;48.554;14.454;2023-08-21T08:34:42;94507.00;;;38.70
41940;BMP180;23057;48.554;14.454;2023-08-21T08:37:13;94503.00;;;38.70
41940;BMP180;23057;48.554;14.454;2023-08-21T08:39:45;94497.00;;;38.80
41940;BMP180;23057;48.554;14.454;2023-08-21T08:42:16;94497.00;;;38.90
41940;BMP180;23057;48.554;14.454;2023-08-21T08:44:49;94504.00;;;39.10
41940;BMP180;23057;48.554;14.454;2023-08-21T08:47:21;94504.00;;;39.00
41940;BMP180;23057;48.554;14.454;2023-08-21T08:49:54;94507.00;;;39.00
41940;BMP180;23057;48.554;14.454;2023-08-21T08:52:27;94508.00;;;39.00
41940;BMP180;23057;48.554;14.454;2023-08-21T08:55:01;94502.00;;;39.00
41940;BMP180;23057;48.554;14.454;2023-08-21T08:57:33;94505.00;;;39.00
41940;BMP180;23057;48.554;14.454;2023-08-21T09:00:05;94495.00;;;39.10
41940;BMP180;23057;48.554;14.454;2023-08-21T09:02:37;94499.00;;;39.20
41940;BMP180;23057;48.554;14.454;2023-08-21T09:05:08;94491.00;;;39.30
41940;BMP180;23057;48.554;14.454;2023-08-21T09:07:42;94493.00;;;39.40
41940;BMP180;23057;48.554;14.454;2023-08-21T09:10:14;94492.00;;;39.40
41940;BMP180;23057;48.554;14.454;2023-08-21T09:12:46;94498.00;;;39.60
41940;BMP180;23057;48.554;14.454;2023-08-21T09:15:17;94501.00;;;39.70
41940;BMP180;23057;48.554;14.454;2023-08-21T09:17:53;94497.00;;;39.90
41940;BMP180;23057;48.554;14.454;2023-08-21T09:20:24;94501.00;;;40.00
41940;BMP180;23057;48.554;14.454;2023-08-21T09:22:55;94495.00;;;40.10
41940;BMP180;23057;48.554;14.454;2023-08-21T09:25:26;94493.00;;;40.10
41940;BMP180;23057;48.554;14.454;2023-08-21T09:27:57;94493.00;;;40.10
41940;BMP180;23057;48.554;14.454;2023-08-21T09:30:28;94490.00;;;40.10
41940;BMP180;23057;48.554;14.454;2023-08-21T09:33:00;94488.00;;;40.10
41940;BMP180;23057;48.554;14.454;2023-08-21T09:35:33;94486.00;;;40.10
41940;BMP180;23057;48.554;14.454;2023-08-21T09:38:04;94487.00;;;40.10
41940;BMP180;23057;48.554;14.454;2023-08-21T09:40:40;94494.00;;;40.10
41940;BMP180;23057;48.554;14.454;2023-08-21T09:43:12;94485.00;;;40.20
41940;BMP180;23057;48.554;14.454;2023-08-21T09:45:52;94489.00;;;40.30
41940;BMP180;23057;48.554;14.454;2023-08-21T09:48:26;94486.00;;;40.20
41940;BMP180;23057;48.554;14.454;2023-08-21T09:50:57;94480.00;;;40.10
41940;BMP180;23057;48.554;14.454;2023-08-21T09:53:30;94480.00;;;40.20
41940;BMP180;23057;48.554;14.454;2023-08-21T09:56:01;94479.00;;;40.30
41940;BMP180;23057;48.554;14.454;2023-08-21T09:58:36;94480.00;;;40.50
41940;BMP180;23057;48.554;14.454;2023-08-21T10:01:08;94470.00;;;40.60
41940;BMP180;23057;48.554;14.454;2023-08-21T10:03:46;94478.00;;;40.80
41940;BMP180;23057;48.554;14.454;2023-08-21T10:06:18;94477.00;;;40.80
41940;BMP180;23057;48.554;14.454;2023-08-21T10:08:54;94473.00;;;40.90
41940;BMP180;23057;48.554;14.454;2023-08-21T10:11:28;94470.00;;;40.90
41940;BMP180;23057;48.554;14.454;2023-08-21T10:13:59;94471.00;;;40.90
41940;BMP180;23057;48.554;14.454;2023-08-21T10:16:31;94466.00;;;41.00
41940;BMP180;23057;48.554;14.454;2023-08-21T10:19:05;94470.00;;;41.00
41940;BMP180;23057;48.554;14.454;2023-08-21T10:21:42;94477.00;;;41.10
41940;BMP180;23057;48.554;14.454;2023-08-21T10:24:45;94476.00;;;41.20
41940;BMP180;23057;48.554;14.454;2023-08-21T10:27:29;94474.00;;;41.20
41940;BMP180;23057;48.554;14.454;2023-08-21T10:30:15;94469.00;;;41.20
41940;BMP180;23057;48.554;14.454;2023-08-21T10:32:53;94473.00;;;41.20
41940;BMP180;23057;48.554;14.454;2023-08-21T10:35:30;94477.00;;;41.20
41940;BMP180;23057;48.554;14.454;2023-08-21T10:41:06;94480.00;;;41.20
41940;BMP180;23057;48.554;14.454;2023-08-21T10:43:43;94480.00;;;41.20
41940;BMP180;23057;48.554;14.454;2023-08-21T10:46:15;94479.00;;;41.20
41940;BMP180;23057;48.554;14.454;2023-08-21T10:48:46;94475.00;;;41.30
41940;BMP180;23057;48.554;14.454;2023-08-21T10:51:17;94472.00;;;41.40
41940;BMP180;23057;48.554;14.454;2023-08-21T10:53:48;94472.00;;;41.50
41940;BMP180;23057;48.554;14.454;2023-08-21T10:56:19;94476.00;;;41.60
41940;BMP180;23057;48.554;14.454;2023-08-21T10:58:50;94478.00;;;41.50
41940;BMP180;23057;48.554;14.454;2023-08-21T11:01:21;94470.00;;;41.60
41940;BMP180;23057;48.554;14.454;2023-08-21T11:03:52;94470.00;;;41.70
41940;BMP180;23057;48.554;14.454;2023-08-21T11:06:23;94469.00;;;41.80
41940;BMP180;23057;48.554;14.454;2023-08-21T11:08:54;94473.00;;;41.80
41940;BMP180;23057;48.554;14.454;2023-08-21T11:11:25;94471.00;;;41.80
41940;BMP180;23057;48.554;14.454;2023-08-21T11:13:56;94468.00;;;41.90
41940;BMP180;23057;48.554;14.454;2023-08-21T11:16:27;94464.00;;;42.00
41940;BMP180;23057;48.554;14.454;2023-08-21T11:19:04;94464.00;;;42.00
41940;BMP180;23057;48.554;14.454;2023-08-21T11:21:36;94459.00;;;42.10
41940;BMP180;23057;48.554;14.454;2023-08-21T11:24:06;94456.00;;;42.20
41940;BMP180;23057;48.554;14.454;2023-08-21T11:26:37;94455.00;;;42.20
41940;BMP180;23057;48.554;14.454;2023-08-21T11:29:08;94453.00;;;42.30
41940;BMP180;23057;48.554;14.454;2023-08-21T11:31:39;94453.00;;;42.40
41940;BMP180;23057;48.554;14.454;2023-08-21T11:34:10;94457.00;;;42.40
41940;BMP180;23057;48.554;14.454;2023-08-21T11:36:41;94453.00;;;42.50
41940;BMP180;23057;48.554;14.454;2023-08-21T11:39:12;94456.00;;;42.50
41940;BMP180;23057;48.554;14.454;2023-08-21T11:41:58;94453.00;;;42.50
41940;BMP180;23057;48.554;14.454;2023-08-21T11:44:30;94454.00;;;42.40
41940;BMP180;23057;48.554;14.454;2023-08-21T11:47:01;94443.00;;;42.40
41940;BMP180;23057;48.554;14.454;2023-08-21T11:49:37;94452.00;;;42.50
41940;BMP180;23057;48.554;14.454;2023-08-21T11:52:13;94445.00;;;42.40
41940;BMP180;23057;48.554;14.454;2023-08-21T11:54:51;94448.00;;;42.30
41940;BMP180;23057;48.554;14.454;2023-08-21T11:57:24;94449.00;;;42.10
41940;BMP180;23057;48.554;14.454;2023-08-21T11:59:55;94455.00;;;42.10
41940;BMP180;23057;48.554;14.454;2023-08-21T12:02:28;94452.00;;;42.00
41940;BMP180;23057;48.554;14.454;2023-08-21T12:05:05;94450.00;;;41.90
41940;BMP180;23057;48.554;14.454;2023-08-21T12:07:36;94454.00;;;41.90
41940;BMP180;23057;48.554;14.454;2023-08-21T12:10:08;94454.00;;;41.90
41940;BMP180;23057;48.554;14.454;2023-08-21T12:12:39;94444.00;;;41.80
41940;BMP180;23057;48.554;14.454;2023-08-21T12:15:10;94445.00;;;41.70
41940;BMP180;23057;48.554;14.454;2023-08-21T12:17:41;94441.00;;;41.70
41940;BMP180;23057;48.554;14.454;2023-08-21T12:20:12;94439.00;;;41.50
41940;BMP180;23057;48.554;14.454;2023-08-21T12:22:43;94438.00;;;41.50
41940;BMP180;23057;48.554;14.454;2023-08-21T12:25:14;94441.00;;;41.70
41940;BMP180;23057;48.554;14.454;2023-08-21T12:27:44;94426.00;;;41.80
41940;BMP180;23057;48.554;14.454;2023-08-21T12:30:15;94433.00;;;41.80
41940;BMP180;23057;48.554;14.454;2023-08-21T12:32:46;94427.00;;;41.90
41940;BMP180;23057;48.554;14.454;2023-08-21T12:35:17;94427.00;;;41.80
41940;BMP180;23057;48.554;14.454;2023-08-21T12:37:48;94427.00;;;41.80
41940;BMP180;23057;48.554;14.454;2023-08-21T12:40:19;94427.00;;;41.70
41940;BMP180;23057;48.554;14.454;2023-08-21T12:42:50;94426.00;;;41.70
41940;BMP180;23057;48.554;14.454;2023-08-21T12:45:21;94425.00;;;41.70
41940;BMP180;23057;48.554;14.454;2023-08-21T12:47:51;94422.00;;;41.60
41940;BMP180;23057;48.554;14.454;2023-08-21T12:50:22;94425.00;;;41.60
41940;BMP180;23057;48.554;14.454;2023-08-21T12:52:53;94420.00;;;41.70
41940;BMP180;23057;48.554;14.454;2023-08-21T12:55:24;94421.00;;;41.70
41940;BMP180;23057;48.554;14.454;2023-08-21T12:57:56;94418.00;;;41.70
41940;BMP180;23057;48.554;14.454;2023-08-21T13:00:27;94423.00;;;41.60
41940;BMP180;23057;48.554;14.454;2023-08-21T13:02:58;94417.00;;;41.70
41940;BMP180;23057;48.554;14.454;2023-08-21T13:05:29;94419.00;;;41.50
41940;BMP180;23057;48.554;14.454;2023-08-21T13:08:00;94411.00;;;41.50
41940;BMP180;23057;48.554;14.454;2023-08-21T13:10:31;94408.00;;;41.40
41940;BMP180;23057;48.554;14.454;2023-08-21T13:13:02;94421.00;;;41.40
41940;BMP180;23057;48.554;14.454;2023-08-21T13:15:33;94408.00;;;41.30
41940;BMP180;23057;48.554;14.454;2023-08-21T13:18:04;94404.00;;;41.30
41940;BMP180;23057;48.554;14.454;2023-08-21T13:20:35;94413.00;;;41.30
41940;BMP180;23057;48.554;14.454;2023-08-21T13:23:06;94409.00;;;41.40
41940;BMP180;23057;48.554;14.454;2023-08-21T13:25:36;94407.00;;;41.50
41940;BMP180;23057;48.554;14.454;2023-08-21T13:28:07;94408.00;;;41.50
41940;BMP180;23057;48.554;14.454;2023-08-21T13:30:38;94393.00;;;41.60
41940;BMP180;23057;48.554;14.454;2023-08-21T13:33:09;94400.00;;;41.70
41940;BMP180;23057;48.554;14.454;2023-08-21T13:35:40;94400.00;;;41.70
41940;BMP180;23057;48.554;14.454;2023-08-21T13:38:13;94400.00;;;41.70
41940;BMP180;23057;48.554;14.454;2023-08-21T13:40:44;94396.00;;;41.70
41940;BMP180;23057;48.554;14.454;2023-08-21T13:43:15;94390.00;;;41.60
41940;BMP180;23057;48.554;14.454;2023-08-21T13:45:46;94391.00;;;41.50
41940;BMP180;23057;48.554;14.454;2023-08-21T13:48:17;94391.00;;;41.40
41940;BMP180;23057;48.554;14.454;2023-08-21T13:50:48;94387.00;;;41.20
41940;BMP180;23057;48.554;14.454;2023-08-21T13:53:19;94392.00;;;41.20
41940;BMP180;23057;48.554;14.454;2023-08-21T13:55:51;94384.00;;;41.20
41940;BMP180;23057;48.554;14.454;2023-08-21T13:58:22;94384.00;;;41.00
41940;BMP180;23057;48.554;14.454;2023-08-21T14:00:52;94380.00;;;40.90
41940;BMP180;23057;48.554;14.454;2023-08-21T14:03:23;94380.00;;;40.90
41940;BMP180;23057;48.554;14.454;2023-08-21T14:05:55;94371.00;;;40.80
41940;BMP180;23057;48.554;14.454;2023-08-21T14:08:26;94377.00;;;40.80
41940;BMP180;23057;48.554;14.454;2023-08-21T14:10:57;94371.00;;;40.80
41940;BMP180;23057;48.554;14.454;2023-08-21T14:13:27;94372.00;;;40.90
41940;BMP180;23057;48.554;14.454;2023-08-21T14:15:58;94376.00;;;40.80
41940;BMP180;23057;48.554;14.454;2023-08-21T14:18:29;94385.00;;;40.90
41940;BMP180;23057;48.554;14.454;2023-08-21T14:21:00;94382.00;;;40.90
41940;BMP180;23057;48.554;14.454;2023-08-21T14:23:31;94378.00;;;40.90
41940;BMP180;23057;48.554;14.454;2023-08-21T14:26:02;94379.00;;;40.80